Time;durP1;ratioP1;P1;durP2;ratioP2;P2;SDS_P1;SDS_P2;PMS_P1;PMS_P2;Temp;Humidity;BMP_temperature;BMP_pressure;BME280_temperature;BME280_humidity;BME280_pressure;Samples;Min_cycle;Max_cycle;Signal;HPM_P1;HPM_P2
2023/06/23 00:02:16;;;;;;;26.42;23.10;;;;;;;-148.88;100.00;-17125.47;5033491;28;20484;-72
2023/06/23 00:04:41;;;;;;;25.80;23.20;;;;;;;-148.88;100.00;-17125.47;5015954;28;20032;-72
2023/06/23 00:07:07;;;;;;;25.08;22.42;;;;;;;-148.88;100.00;-17125.47;5015920;28;20477;-72
2023/06/23 00:09:32;;;;;;;26.30;22.20;;;;;;;-148.88;100.00;-17125.47;5016285;28;20027;-72
2023/06/23 00:11:58;;;;;;;25.08;22.38;;;;;;;-148.88;100.00;-17125.47;5033442;28;20075;-72
2023/06/23 00:14:23;;;;;;;24.88;22.27;;;;;;;-148.88;100.00;-17125.47;5033338;28;20052;-72
2023/06/23 00:16:50;;;;;;;25.35;22.70;;;;;;;-148.88;100.00;-17125.47;5015926;28;20030;-73
2023/06/23 00:19:16;;;;;;;25.17;22.30;;;;;;;-148.88;100.00;-17125.47;5033433;28;20036;-73
2023/06/23 00:21:43;;;;;;;25.25;21.38;;;;;;;-148.88;100.00;-17125.47;5015278;28;20025;-72
2023/06/23 00:24:10;;;;;;;33.70;25.20;;;;;;;-148.88;100.00;-17125.47;5015282;28;20021;-72
2023/06/23 00:26:35;;;;;;;28.20;25.08;;;;;;;-148.88;100.00;-17125.47;5015155;28;20025;-72
2023/06/23 00:29:01;;;;;;;26.35;23.20;;;;;;;-148.88;100.00;-17125.47;5033177;28;20026;-72
2023/06/23 00:31:26;;;;;;;31.70;24.58;;;;;;;-148.88;100.00;-17125.47;5032828;28;20033;-71
2023/06/23 00:33:51;;;;;;;26.88;23.73;;;;;;;-148.88;100.00;-17125.47;5015271;28;20031;-71
2023/06/23 00:36:17;;;;;;;24.50;21.88;;;;;;;-148.88;100.00;-17125.47;5014786;28;20079;-71
2023/06/23 00:38:44;;;;;;;24.50;19.85;;;;;;;-148.88;100.00;-17125.47;5032696;28;20025;-72
2023/06/23 00:41:11;;;;;;;21.35;19.05;;;;;;;-148.88;100.00;-17125.47;5015005;28;20029;-72
2023/06/23 00:43:37;;;;;;;25.83;19.88;;;;;;;-148.88;100.00;-17125.47;5015202;28;20498;-71
2023/06/23 00:46:16;;;;;;;21.63;17.42;;;;;;;-148.88;100.00;-17125.47;5032821;28;20476;-71
2023/06/23 00:48:41;;;;;;;21.55;18.65;;;;;;;-148.88;100.00;-17125.47;5032752;28;20034;-72
2023/06/23 00:51:07;;;;;;;23.92;18.48;;;;;;;-148.88;100.00;-17125.47;5032742;28;20021;-72
2023/06/23 00:53:32;;;;;;;22.58;17.50;;;;;;;-148.88;100.00;-17125.47;5015177;28;20484;-72
2023/06/23 00:55:59;;;;;;;20.83;16.40;;;;;;;-148.88;100.00;-17125.47;5032739;28;20468;-72
2023/06/23 00:58:25;;;;;;;23.17;17.00;;;;;;;-148.88;100.00;-17125.47;5014757;28;20026;-72
2023/06/23 01:00:51;;;;;;;21.05;16.73;;;;;;;-148.88;100.00;-17125.47;5032469;28;20022;-71
2023/06/23 01:03:16;;;;;;;19.20;15.48;;;;;;;-148.88;100.00;-17125.47;5032333;28;20039;-71
2023/06/23 01:05:43;;;;;;;20.02;16.55;;;;;;;-148.88;100.00;-17125.47;5014574;28;20025;-72
2023/06/23 01:08:33;;;;;;;20.38;16.67;;;;;;;-148.88;100.00;-17125.47;5014583;28;20412;-72
2023/06/23 01:11:21;;;;;;;19.67;15.93;;;;;;;-148.88;100.00;-17125.47;5032372;28;20055;-71
2023/06/23 01:13:52;;;;;;;20.58;16.83;;;;;;;-148.88;100.00;-17125.47;5032656;28;20018;-71
2023/06/23 01:16:26;;;;;;;22.17;17.60;;;;;;;-148.88;100.00;-17125.47;5032581;28;20109;-72
2023/06/23 01:19:03;;;;;;;22.65;17.23;;;;;;;-148.88;100.00;-17125.47;5032379;28;20017;-71
2023/06/23 01:22:04;;;;;;;18.95;16.30;;;;;;;-148.88;100.00;-17125.47;5032692;28;20031;-72
2023/06/23 01:24:45;;;;;;;20.08;15.95;;;;;;;-148.88;100.00;-17125.47;5032188;28;20028;-72
2023/06/23 01:27:17;;;;;;;18.35;15.07;;;;;;;-148.88;100.00;-17125.47;5032351;28;20077;-72
2023/06/23 01:29:47;;;;;;;17.10;14.60;;;;;;;-148.88;100.00;-17125.47;5014713;28;20084;-72
2023/06/23 01:32:18;;;;;;;18.00;14.27;;;;;;;-148.88;100.00;-17125.47;5033013;28;20053;-72
2023/06/23 01:34:46;;;;;;;16.65;13.27;;;;;;;-148.88;100.00;-17125.47;5032717;28;20088;-71
2023/06/23 01:37:23;;;;;;;16.02;13.45;;;;;;;-148.88;100.00;-17125.47;5032307;28;20503;-72
2023/06/23 01:39:53;;;;;;;15.15;12.57;;;;;;;-148.88;100.00;-17125.47;5014587;28;20060;-71
2023/06/23 01:42:22;;;;;;;12.55;10.27;;;;;;;-148.88;100.00;-17125.47;5015210;28;20472;-71
2023/06/23 01:44:55;;;;;;;10.43;8.63;;;;;;;-148.88;100.00;-17125.47;5032165;28;20025;-71
2023/06/23 01:47:26;;;;;;;10.63;9.00;;;;;;;-148.88;100.00;-17125.47;5014384;28;20026;-71
2023/06/23 01:49:53;;;;;;;7.75;5.65;;;;;;;-148.88;100.00;-17125.47;5032498;28;20108;-71
2023/06/23 01:52:21;;;;;;;6.97;5.38;;;;;;;-148.88;100.00;-17125.47;5032142;28;20029;-71
2023/06/23 01:54:48;;;;;;;6.03;4.68;;;;;;;-148.88;100.00;-17125.47;5014278;28;20022;-71
2023/06/23 01:57:15;;;;;;;6.60;5.50;;;;;;;-148.88;100.00;-17125.47;5031968;28;20076;-72
2023/06/23 01:59:43;;;;;;;7.30;6.30;;;;;;;-148.88;100.00;-17125.47;5031924;28;20105;-72
2023/06/23 02:02:10;;;;;;;7.10;6.22;;;;;;;-148.88;100.00;-17125.47;5032125;28;20021;-72
2023/06/23 02:04:37;;;;;;;7.85;6.50;;;;;;;-148.88;100.00;-17125.47;5031843;28;20048;-71
2023/06/23 02:07:04;;;;;;;7.15;5.95;;;;;;;-148.88;100.00;-17125.47;5031812;28;20036;-72
2023/06/23 02:09:32;;;;;;;8.23;6.90;;;;;;;-148.88;100.00;-17125.47;5032285;28;20437;-72
2023/06/23 02:11:58;;;;;;;8.52;6.78;;;;;;;-148.88;100.00;-17125.47;5031763;28;20563;-72
2023/06/23 02:14:27;;;;;;;8.68;6.93;;;;;;;-148.88;100.00;-17125.47;5033526;28;20477;-72
2023/06/23 02:16:53;;;;;;;8.45;7.07;;;;;;;-148.88;100.00;-17125.47;5035589;28;20033;-72
2023/06/23 02:19:21;;;;;;;7.53;6.70;;;;;;;-148.88;100.00;-17125.47;5035360;28;20052;-71
2023/06/23 02:21:48;;;;;;;9.10;7.35;;;;;;;-148.88;100.00;-17125.47;5035763;28;20026;-71
2023/06/23 02:24:15;;;;;;;8.23;7.10;;;;;;;-148.88;100.00;-17125.47;5017989;28;20021;-72
2023/06/23 02:26:41;;;;;;;8.52;6.57;;;;;;;-148.88;100.00;-17125.47;5035577;28;20029;-72
2023/06/23 02:29:09;;;;;;;8.60;6.78;;;;;;;-148.88;100.00;-17125.47;5035295;28;20032;-71
2023/06/23 02:31:34;;;;;;;9.18;6.90;;;;;;;-148.88;100.00;-17125.47;5017374;28;20036;-71
2023/06/23 02:34:00;;;;;;;7.80;6.60;;;;;;;-148.88;100.00;-17125.47;5035351;28;20025;-71
2023/06/23 02:36:31;;;;;;;8.38;7.07;;;;;;;-148.88;100.00;-17125.47;5035164;28;20025;-71
2023/06/23 02:38:59;;;;;;;8.07;7.07;;;;;;;-148.88;100.00;-17125.47;5035426;28;20116;-72
2023/06/23 02:41:28;;;;;;;6.57;5.95;;;;;;;-148.88;100.00;-17125.47;5035124;28;20022;-71
2023/06/23 02:43:59;;;;;;;8.70;6.22;;;;;;;-148.88;100.00;-17125.47;5035015;28;20026;-72
2023/06/23 02:46:31;;;;;;;6.85;6.15;;;;;;;-148.88;100.00;-17125.47;5035679;28;20036;-72
2023/06/23 02:49:06;;;;;;;7.03;6.20;;;;;;;-148.88;100.00;-17125.47;5035227;28;20041;-71
2023/06/23 02:51:35;;;;;;;8.88;6.85;;;;;;;-148.88;100.00;-17125.47;5034678;28;20377;-72
2023/06/23 02:54:06;;;;;;;8.07;6.45;;;;;;;-148.88;100.00;-17125.47;5016772;28;20055;-71
2023/06/23 02:56:34;;;;;;;7.88;6.35;;;;;;;-148.88;100.00;-17125.47;5034643;28;20018;-72
2023/06/23 02:59:05;;;;;;;7.45;6.57;;;;;;;-148.88;100.00;-17125.47;5016724;28;20032;-71
2023/06/23 03:01:34;;;;;;;8.40;7.05;;;;;;;-148.88;100.00;-17125.47;5034778;28;20079;-71
2023/06/23 03:04:00;;;;;;;7.90;6.18;;;;;;;-148.88;100.00;-17125.47;5034630;28;20429;-71
2023/06/23 03:06:26;;;;;;;7.95;6.80;;;;;;;-148.88;100.00;-17125.47;5016491;28;20029;-71
2023/06/23 03:08:51;;;;;;;7.40;6.28;;;;;;;-148.88;100.00;-17125.47;5034388;28;20040;-71
2023/06/23 03:11:20;;;;;;;7.63;6.82;;;;;;;-148.88;100.00;-17125.47;5034364;28;20097;-71
2023/06/23 03:13:47;;;;;;;8.00;6.75;;;;;;;-148.88;100.00;-17125.47;5034516;28;20075;-71
2023/06/23 03:16:19;;;;;;;8.95;7.30;;;;;;;-148.88;100.00;-17125.47;5034208;28;20040;-71
2023/06/23 03:19:02;;;;;;;7.75;6.95;;;;;;;-148.88;100.00;-17125.47;5016551;28;20048;-72
2023/06/23 03:21:28;;;;;;;9.25;7.82;;;;;;;-148.88;100.00;-17125.47;5035008;28;20440;-72
2023/06/23 03:23:57;;;;;;;9.02;8.13;;;;;;;-148.88;100.00;-17125.47;5034409;28;20488;-72
2023/06/23 03:26:24;;;;;;;11.27;8.70;;;;;;;-148.88;100.00;-17125.47;5016294;28;20384;-71
2023/06/23 03:28:54;;;;;;;11.43;9.50;;;;;;;-148.88;100.00;-17125.47;5034097;28;20091;-72
2023/06/23 03:31:21;;;;;;;11.60;10.40;;;;;;;-148.88;100.00;-17125.47;5033890;28;20032;-71
2023/06/23 03:33:48;;;;;;;12.32;10.95;;;;;;;-148.88;100.00;-17125.47;5016072;28;20403;-72
2023/06/23 03:36:21;;;;;;;16.25;14.23;;;;;;;-148.88;100.00;-17125.47;5033811;28;20476;-71
2023/06/23 03:39:17;;;;;;;17.90;14.88;;;;;;;-148.88;100.00;-17125.47;5034068;28;20025;-72
2023/06/23 03:41:43;;;;;;;18.35;15.48;;;;;;;-148.88;100.00;-17125.47;5033984;28;20031;-71
2023/06/23 03:44:26;;;;;;;16.65;13.40;;;;;;;-148.88;100.00;-17125.47;5015972;28;20052;-71
2023/06/23 03:47:13;;;;;;;16.20;12.93;;;;;;;-148.88;100.00;-17125.47;5015837;28;20033;-71
2023/06/23 03:49:44;;;;;;;16.02;13.65;;;;;;;-148.88;100.00;-17125.47;5034047;28;20021;-72
2023/06/23 03:52:12;;;;;;;16.35;14.20;;;;;;;-148.88;100.00;-17125.47;5033739;28;20040;-72
2023/06/23 03:54:40;;;;;;;18.95;15.00;;;;;;;-148.88;100.00;-17125.47;5033793;28;20400;-72
2023/06/23 03:57:12;;;;;;;17.77;14.55;;;;;;;-148.88;100.00;-17125.47;5033657;28;20029;-72
2023/06/23 03:59:39;;;;;;;17.45;14.25;;;;;;;-148.88;100.00;-17125.47;5033894;28;20017;-72
2023/06/23 04:02:06;;;;;;;19.02;14.10;;;;;;;-148.88;100.00;-17125.47;5033598;28;20064;-72
2023/06/23 04:04:35;;;;;;;18.75;14.50;;;;;;;-148.88;100.00;-17125.47;5033672;28;20022;-72
2023/06/23 04:07:03;;;;;;;18.35;14.02;;;;;;;-148.88;100.00;-17125.47;5033429;28;20038;-72
2023/06/23 04:09:31;;;;;;;21.30;15.02;;;;;;;-148.88;100.00;-17125.47;5015495;28;20029;-71
2023/06/23 04:11:58;;;;;;;18.30;14.38;;;;;;;-148.88;100.00;-17125.47;5033321;28;20028;-72
2023/06/23 04:14:26;;;;;;;19.77;15.30;;;;;;;-148.88;100.00;-17125.47;5033273;28;20022;-72
2023/06/23 04:16:54;;;;;;;23.05;16.13;;;;;;;-148.88;100.00;-17125.47;5015332;28;20052;-72
2023/06/23 04:19:25;;;;;;;18.48;15.05;;;;;;;-148.88;100.00;-17125.47;5015377;28;20031;-72
2023/06/23 04:21:51;;;;;;;22.30;15.40;;;;;;;-148.88;100.00;-17125.47;5033678;28;20399;-72
2023/06/23 04:24:19;;;;;;;24.90;17.25;;;;;;;-148.88;100.00;-17125.47;5033013;28;20052;-74
2023/06/23 04:26:47;;;;;;;22.55;17.10;;;;;;;-148.88;100.00;-17125.47;5032932;28;20032;-72
2023/06/23 04:29:14;;;;;;;23.88;17.00;;;;;;;-148.88;100.00;-17125.47;5032978;28;20025;-72
2023/06/23 04:31:41;;;;;;;23.63;17.35;;;;;;;-148.88;100.00;-17125.47;5015049;28;20033;-72
2023/06/23 04:34:06;;;;;;;21.85;17.17;;;;;;;-148.88;100.00;-17125.47;5033175;28;20034;-72
2023/06/23 04:36:40;;;;;;;20.63;15.93;;;;;;;-148.88;100.00;-17125.47;5032971;28;20087;-74
2023/06/23 04:39:19;;;;;;;20.15;15.07;;;;;;;-148.88;100.00;-17125.47;5033179;28;20025;-72
2023/06/23 04:41:48;;;;;;;23.92;17.45;;;;;;;-148.88;100.00;-17125.47;5033116;28;20492;-73
2023/06/23 04:44:18;;;;;;;18.52;13.70;;;;;;;-148.88;100.00;-17125.47;5032816;28;20057;-73
2023/06/23 04:46:46;;;;;;;17.58;13.20;;;;;;;-148.88;100.00;-17125.47;5033126;28;20080;-73
2023/06/23 04:49:15;;;;;;;17.90;13.77;;;;;;;-148.88;100.00;-17125.47;5032825;28;20448;-72
2023/06/23 04:51:46;;;;;;;14.90;11.30;;;;;;;-148.88;100.00;-17125.47;5014989;28;20032;-72
2023/06/23 04:54:18;;;;;;;15.40;11.52;;;;;;;-148.88;100.00;-17125.47;5032756;28;20508;-72
2023/06/23 04:56:48;;;;;;;13.38;10.18;;;;;;;-148.88;100.00;-17125.47;5032615;28;20049;-72
2023/06/23 04:59:15;;;;;;;16.27;11.43;;;;;;;-148.88;100.00;-17125.47;5032830;28;20026;-72
2023/06/23 05:01:43;;;;;;;13.70;11.20;;;;;;;-148.88;100.00;-17125.47;5032601;28;20547;-75
2023/06/23 05:04:10;;;;;;;14.98;10.57;;;;;;;-148.88;100.00;-17125.47;5032677;28;20056;-72
2023/06/23 05:06:37;;;;;;;15.30;11.35;;;;;;;-148.88;100.00;-17125.47;5033149;28;20030;-72
2023/06/23 05:09:04;;;;;;;18.73;14.23;;;;;;;-148.88;100.00;-17125.47;5033060;28;20028;-73
2023/06/23 05:11:31;;;;;;;23.65;17.48;;;;;;;-148.88;100.00;-17125.47;5033009;28;20460;-73
2023/06/23 05:13:58;;;;;;;22.73;17.40;;;;;;;-148.88;100.00;-17125.47;5015574;28;20033;-73
2023/06/23 05:16:25;;;;;;;24.63;18.83;;;;;;;-148.88;100.00;-17125.47;5033165;28;20067;-72
2023/06/23 05:18:52;;;;;;;26.63;18.70;;;;;;;-148.88;100.00;-17125.47;5032795;28;20029;-72
2023/06/23 05:21:21;;;;;;;25.48;19.48;;;;;;;-148.88;100.00;-17125.47;5032824;28;20043;-72
2023/06/23 05:23:49;;;;;;;31.23;21.02;;;;;;;-148.88;100.00;-17125.47;5032802;28;20033;-72
2023/06/23 05:26:15;;;;;;;24.63;19.70;;;;;;;-148.88;100.00;-17125.47;5032650;28;20152;-72
2023/06/23 05:28:43;;;;;;;23.55;18.30;;;;;;;-148.88;100.00;-17125.47;5032387;28;20043;-71
2023/06/23 05:31:11;;;;;;;26.45;18.90;;;;;;;-148.88;100.00;-17125.47;5032245;28;20087;-72
2023/06/23 05:33:39;;;;;;;23.50;18.95;;;;;;;-148.88;100.00;-17125.47;5032350;28;20021;-72
2023/06/23 05:36:09;;;;;;;24.50;18.05;;;;;;;-148.88;100.00;-17125.47;5032213;28;20026;-72
2023/06/23 05:38:37;;;;;;;23.60;17.85;;;;;;;-148.88;100.00;-17125.47;5032330;28;20032;-72
2023/06/23 05:41:02;;;;;;;25.63;18.88;;;;;;;-148.88;100.00;-17125.47;5032529;28;20025;-72
2023/06/23 05:43:28;;;;;;;24.45;17.67;;;;;;;-148.88;100.00;-17125.47;5032367;28;20028;-72
2023/06/23 05:45:55;;;;;;;23.58;17.08;;;;;;;-148.88;100.00;-17125.47;5032087;28;20028;-72
2023/06/23 05:48:34;;;;;;;22.75;16.10;;;;;;;-148.88;100.00;-17125.47;5032250;28;20116;-72
2023/06/23 05:51:04;;;;;;;19.23;13.82;;;;;;;-148.88;100.00;-17125.47;5018410;28;20029;-73
2023/06/23 05:53:31;;;;;;;12.95;11.23;;;;;;;-148.88;100.00;-17125.47;5018809;28;20045;-72
2023/06/23 05:56:12;;;;;;;17.20;12.10;;;;;;;-148.88;100.00;-17125.47;5018150;28;20500;-72
2023/06/23 05:58:41;;;;;;;18.23;10.88;;;;;;;-148.88;100.00;-17125.47;5035957;28;20520;-73
2023/06/23 06:01:15;;;;;;;13.85;10.65;;;;;;;-148.88;100.00;-17125.47;5035820;28;20063;-72
2023/06/23 06:03:47;;;;;;;11.40;8.35;;;;;;;-148.88;100.00;-17125.47;5035759;28;20021;-72
2023/06/23 06:06:14;;;;;;;10.35;7.35;;;;;;;-148.88;100.00;-17125.47;5017700;28;20079;-72
2023/06/23 06:08:41;;;;;;;13.30;7.85;;;;;;;-148.88;100.00;-17125.47;5035516;28;20458;-73
2023/06/23 06:11:09;;;;;;;11.73;8.13;;;;;;;-148.88;100.00;-17125.47;5035566;28;20472;-72
2023/06/23 06:13:38;;;;;;;11.75;7.82;;;;;;;-148.88;100.00;-17125.47;5035587;28;20022;-72
2023/06/23 06:16:07;;;;;;;9.98;7.68;;;;;;;-148.88;100.00;-17125.47;5035438;28;20029;-72
2023/06/23 06:18:33;;;;;;;9.90;7.30;;;;;;;-148.88;100.00;-17125.47;5017734;28;20025;-72
2023/06/23 06:21:00;;;;;;;9.05;6.85;;;;;;;-148.88;100.00;-17125.47;5035444;28;20029;-72
2023/06/23 06:23:28;;;;;;;11.13;7.38;;;;;;;-148.88;100.00;-17125.47;5017567;28;20025;-73
2023/06/23 06:25:55;;;;;;;9.40;6.82;;;;;;;-148.88;100.00;-17125.47;5017454;28;20032;-72
2023/06/23 06:28:22;;;;;;;12.23;8.20;;;;;;;-148.88;100.00;-17125.47;5017613;28;20029;-72
2023/06/23 06:30:50;;;;;;;10.88;7.22;;;;;;;-148.88;100.00;-17125.47;5017345;28;20025;-72
2023/06/23 06:33:18;;;;;;;9.63;7.90;;;;;;;-148.88;100.00;-17125.47;5035254;28;20104;-73
2023/06/23 06:35:46;;;;;;;10.95;7.80;;;;;;;-148.88;100.00;-17125.47;5035477;28;20052;-72
2023/06/23 06:38:12;;;;;;;9.93;7.75;;;;;;;-148.88;100.00;-17125.47;5035291;28;20022;-73
2023/06/23 06:40:39;;;;;;;11.40;8.80;;;;;;;-148.88;100.00;-17125.47;5035272;28;20029;-72
2023/06/23 06:43:04;;;;;;;12.45;9.13;;;;;;;-148.88;100.00;-17125.47;5035338;28;20087;-72
2023/06/23 06:45:31;;;;;;;12.18;8.60;;;;;;;-148.88;100.00;-17125.47;5034862;28;20025;-72
2023/06/23 06:47:58;;;;;;;10.60;8.07;;;;;;;-148.88;100.00;-17125.47;5035149;28;20088;-72
2023/06/23 06:50:25;;;;;;;11.68;8.70;;;;;;;-148.88;100.00;-17125.47;5017056;28;20108;-72
2023/06/23 06:52:50;;;;;;;12.60;8.88;;;;;;;-148.88;100.00;-17125.47;5035075;28;20032;-72
2023/06/23 06:55:18;;;;;;;13.30;9.73;;;;;;;-148.88;100.00;-17125.47;5017029;28;20397;-72
2023/06/23 06:57:46;;;;;;;9.23;7.68;;;;;;;-148.88;100.00;-17125.47;5034842;28;20162;-72
2023/06/23 07:00:12;;;;;;;12.73;8.85;;;;;;;-148.88;100.00;-17125.47;5034219;28;20460;-72
2023/06/23 07:02:39;;;;;;;12.05;9.07;;;;;;;-148.88;100.00;-17125.47;5034725;28;20025;-72
2023/06/23 07:05:05;;;;;;;15.93;9.10;;;;;;;-148.88;100.00;-17125.47;5016893;28;20014;-72
2023/06/23 07:07:31;;;;;;;13.30;10.38;;;;;;;-148.88;100.00;-17125.47;5035135;28;20079;-74
2023/06/23 07:09:56;;;;;;;17.40;11.55;;;;;;;-148.88;100.00;-17125.47;5016921;28;20021;-72
2023/06/23 07:12:23;;;;;;;16.15;12.68;;;;;;;-148.88;100.00;-17125.47;5034609;28;20025;-72
2023/06/23 07:14:49;;;;;;;20.60;14.80;;;;;;;-148.88;100.00;-17125.47;5034639;28;20499;-72
2023/06/23 07:17:14;;;;;;;19.70;14.95;;;;;;;-148.88;100.00;-17125.47;5034418;28;20100;-72
2023/06/23 07:19:40;;;;;;;19.50;15.85;;;;;;;-148.88;100.00;-17125.47;5034413;28;20108;-72
2023/06/23 07:22:06;;;;;;;19.77;15.40;;;;;;;-148.88;100.00;-17125.47;5034291;28;20026;-72
2023/06/23 07:24:31;;;;;;;20.23;14.65;;;;;;;-148.88;100.00;-17125.47;5034155;28;20021;-72
2023/06/23 07:26:57;;;;;;;19.10;13.65;;;;;;;-148.88;100.00;-17125.47;5034137;28;20484;-72
2023/06/23 07:29:22;;;;;;;16.23;12.38;;;;;;;-148.88;100.00;-17125.47;5034163;28;20072;-74
2023/06/23 07:31:47;;;;;;;17.05;13.60;;;;;;;-148.88;100.00;-17125.47;5033896;28;20064;-72
2023/06/23 07:34:13;;;;;;;19.42;13.35;;;;;;;-148.88;100.00;-17125.47;5034237;28;20021;-72
2023/06/23 07:36:38;;;;;;;18.60;14.02;;;;;;;-148.88;100.00;-17125.47;5033848;28;20025;-72
2023/06/23 07:39:03;;;;;;;18.33;13.30;;;;;;;-148.88;100.00;-17125.47;5034132;28;20021;-72
2023/06/23 07:41:29;;;;;;;15.95;11.93;;;;;;;-148.88;100.00;-17125.47;5034048;28;20099;-74
2023/06/23 07:43:54;;;;;;;17.35;11.60;;;;;;;-148.88;100.00;-17125.47;5016087;28;20084;-72
2023/06/23 07:46:20;;;;;;;14.80;10.73;;;;;;;-148.88;100.00;-17125.47;5033626;28;20032;-72
2023/06/23 07:48:45;;;;;;;14.45;11.40;;;;;;;-148.88;100.00;-17125.47;5033797;28;20036;-72
2023/06/23 07:51:10;;;;;;;14.27;11.40;;;;;;;-148.88;100.00;-17125.47;5033709;28;20552;-72
2023/06/23 07:53:36;;;;;;;15.45;11.10;;;;;;;-148.88;100.00;-17125.47;5033786;28;20021;-72
2023/06/23 07:56:02;;;;;;;14.40;11.25;;;;;;;-148.88;100.00;-17125.47;5033493;28;20097;-72
2023/06/23 07:58:27;;;;;;;13.65;11.05;;;;;;;-148.88;100.00;-17125.47;5033491;28;20025;-72
2023/06/23 08:00:53;;;;;;;13.30;11.18;;;;;;;-148.88;100.00;-17125.47;5033585;28;20029;-72
2023/06/23 08:03:19;;;;;;;13.48;11.93;;;;;;;-148.88;100.00;-17125.47;5033472;28;20381;-71
2023/06/23 08:05:46;;;;;;;16.67;11.50;;;;;;;-148.88;100.00;-17125.47;5033181;28;20095;-71
2023/06/23 08:08:11;;;;;;;15.35;11.57;;;;;;;-148.88;100.00;-17125.47;5033623;28;20025;-72
2023/06/23 08:10:36;;;;;;;19.50;13.23;;;;;;;-148.88;100.00;-17125.47;5015606;28;20052;-71
2023/06/23 08:13:02;;;;;;;15.10;12.13;;;;;;;-148.88;100.00;-17125.47;5032450;28;20033;-71
2023/06/23 08:15:27;;;;;;;16.10;11.48;;;;;;;-148.88;100.00;-17125.47;5033078;28;20025;-71
2023/06/23 08:17:54;;;;;;;15.32;10.88;;;;;;;-148.88;100.00;-17125.47;5033541;28;20028;-73
2023/06/23 08:20:20;;;;;;;15.98;11.27;;;;;;;-148.88;100.00;-17125.47;5033156;28;20021;-71
2023/06/23 08:22:45;;;;;;;14.10;10.40;;;;;;;-148.88;100.00;-17125.47;5015315;28;20095;-72
2023/06/23 08:25:11;;;;;;;14.88;11.32;;;;;;;-148.88;100.00;-17125.47;5032976;28;20022;-71
2023/06/23 08:27:36;;;;;;;12.68;10.27;;;;;;;-148.88;100.00;-17125.47;5032949;28;20029;-72
2023/06/23 08:30:02;;;;;;;13.60;10.65;;;;;;;-148.88;100.00;-17125.47;5032907;28;20025;-72
2023/06/23 08:32:28;;;;;;;18.65;10.68;;;;;;;-148.88;100.00;-17125.47;5032911;28;20518;-72
2023/06/23 08:34:53;;;;;;;15.35;11.43;;;;;;;-148.88;100.00;-17125.47;5032902;28;20053;-72
2023/06/23 08:37:18;;;;;;;14.43;10.80;;;;;;;-148.88;100.00;-17125.47;5032942;28;20029;-72
2023/06/23 08:39:44;;;;;;;14.25;10.80;;;;;;;-148.88;100.00;-17125.47;5032948;28;20405;-72
2023/06/23 08:42:12;;;;;;;12.73;10.23;;;;;;;-148.88;100.00;-17125.47;5032907;28;20028;-72
2023/06/23 08:44:41;;;;;;;13.77;9.85;;;;;;;-148.88;100.00;-17125.47;5015104;28;20118;-72
2023/06/23 08:47:12;;;;;;;14.00;10.25;;;;;;;-148.88;100.00;-17125.47;5032810;28;20425;-72
2023/06/23 08:49:41;;;;;;;11.88;10.35;;;;;;;-148.88;100.00;-17125.47;5032788;28;20021;-72
2023/06/23 08:52:08;;;;;;;15.23;11.40;;;;;;;-148.88;100.00;-17125.47;5015041;28;20079;-72
2023/06/23 08:54:35;;;;;;;15.05;10.82;;;;;;;-148.88;100.00;-17125.47;5032739;28;20029;-73
2023/06/23 08:57:00;;;;;;;14.82;10.80;;;;;;;-148.88;100.00;-17125.47;5032793;28;20029;-73
2023/06/23 08:59:26;;;;;;;17.30;11.82;;;;;;;-148.88;100.00;-17125.47;5032880;28;20025;-72
2023/06/23 09:01:51;;;;;;;15.45;11.82;;;;;;;-148.88;100.00;-17125.47;5032876;28;20479;-73
2023/06/23 09:04:17;;;;;;;22.07;13.20;;;;;;;-148.88;100.00;-17125.47;5014648;28;20017;-72
2023/06/23 09:06:42;;;;;;;15.90;12.60;;;;;;;-148.88;100.00;-17125.47;5032550;28;20564;-72
2023/06/23 09:09:07;;;;;;;17.52;12.85;;;;;;;-148.88;100.00;-17125.47;5032467;28;20021;-72
2023/06/23 09:11:33;;;;;;;20.13;13.57;;;;;;;-148.88;100.00;-17125.47;5014714;28;20484;-72
2023/06/23 09:13:59;;;;;;;17.20;13.57;;;;;;;-148.88;100.00;-17125.47;5032467;28;20025;-72
2023/06/23 09:16:24;;;;;;;17.63;12.25;;;;;;;-148.88;100.00;-17125.47;5032410;28;20044;-72
2023/06/23 09:18:51;;;;;;;16.55;13.25;;;;;;;-148.88;100.00;-17125.47;5032376;28;20059;-72
2023/06/23 09:21:16;;;;;;;16.90;12.70;;;;;;;-148.88;100.00;-17125.47;5014561;28;20072;-73
2023/06/23 09:24:02;;;;;;;17.23;12.68;;;;;;;-148.88;100.00;-17125.47;5016631;28;20021;-73
2023/06/23 09:26:27;;;;;;;14.20;11.60;;;;;;;-148.88;100.00;-17125.47;5036865;28;20105;-72
2023/06/23 09:29:13;;;;;;;14.60;11.02;;;;;;;-148.88;100.00;-17125.47;5036462;28;20456;-73
2023/06/23 09:31:42;;;;;;;15.18;11.02;;;;;;;-148.88;100.00;-17125.47;5036347;28;20030;-73
2023/06/23 09:34:08;;;;;;;15.52;11.30;;;;;;;-148.88;100.00;-17125.47;5036379;28;20076;-72
2023/06/23 09:36:35;;;;;;;15.27;10.52;;;;;;;-148.88;100.00;-17125.47;5018651;28;20025;-72
2023/06/23 09:39:03;;;;;;;13.65;10.45;;;;;;;-148.88;100.00;-17125.47;5036155;28;20028;-72
2023/06/23 09:41:33;;;;;;;13.10;10.55;;;;;;;-148.88;100.00;-17125.47;5036296;28;20036;-72
2023/06/23 09:43:59;;;;;;;19.13;12.15;;;;;;;-148.88;100.00;-17125.47;5018259;28;20021;-72
2023/06/23 09:46:27;;;;;;;17.77;11.48;;;;;;;-148.88;100.00;-17125.47;5035791;28;20025;-72
2023/06/23 09:48:52;;;;;;;18.48;11.57;;;;;;;-148.88;100.00;-17125.47;5035861;28;20029;-72
2023/06/23 09:51:21;;;;;;;15.00;11.07;;;;;;;-148.88;100.00;-17125.47;5035886;28;20439;-72
2023/06/23 09:53:47;;;;;;;15.00;12.10;;;;;;;-148.88;100.00;-17125.47;5036344;28;20079;-72
2023/06/23 09:56:14;;;;;;;15.98;13.05;;;;;;;-148.88;100.00;-17125.47;5035890;28;20048;-72
2023/06/23 09:58:41;;;;;;;16.40;12.50;;;;;;;-148.88;100.00;-17125.47;5035883;28;20018;-72
2023/06/23 10:01:10;;;;;;;15.10;12.80;;;;;;;-148.88;100.00;-17125.47;5035828;28;20333;-72
2023/06/23 10:03:43;;;;;;;17.67;12.73;;;;;;;-148.88;100.00;-17125.47;5018157;28;20024;-72
2023/06/23 10:06:19;;;;;;;19.08;13.80;;;;;;;-148.88;100.00;-17125.47;5035693;28;20499;-72
2023/06/23 10:08:45;;;;;;;21.15;14.07;;;;;;;-148.88;100.00;-17125.47;5035641;28;20109;-73
2023/06/23 10:11:10;;;;;;;19.48;13.80;;;;;;;-148.88;100.00;-17125.47;5035491;28;20060;-73
2023/06/23 10:13:36;;;;;;;16.00;12.55;;;;;;;-148.88;100.00;-17125.47;5035457;28;20057;-73
2023/06/23 10:16:02;;;;;;;20.95;13.13;;;;;;;-148.88;100.00;-17125.47;5035406;28;20097;-72
2023/06/23 10:18:28;;;;;;;17.10;13.02;;;;;;;-148.88;100.00;-17125.47;5035581;28;20108;-72
2023/06/23 10:20:54;;;;;;;17.73;13.05;;;;;;;-148.88;100.00;-17125.47;5017505;28;20057;-72
2023/06/23 10:23:23;;;;;;;18.05;12.60;;;;;;;-148.88;100.00;-17125.47;5035201;28;20021;-72
2023/06/23 10:25:54;;;;;;;17.58;12.95;;;;;;;-148.88;100.00;-17125.47;5017368;28;20021;-72
2023/06/23 10:28:22;;;;;;;15.85;12.27;;;;;;;-148.88;100.00;-17125.47;5017497;28;20029;-73
2023/06/23 10:30:48;;;;;;;15.48;12.02;;;;;;;-148.88;100.00;-17125.47;5035157;28;20395;-73
2023/06/23 10:33:19;;;;;;;19.88;12.02;;;;;;;-148.88;100.00;-17125.47;5035163;28;20096;-73
2023/06/23 10:35:46;;;;;;;17.88;12.45;;;;;;;-148.88;100.00;-17125.47;5034212;28;20100;-72
2023/06/23 10:38:23;;;;;;;17.33;12.48;;;;;;;-148.88;100.00;-17125.47;5017332;28;20028;-73
2023/06/23 10:40:50;;;;;;;19.00;12.23;;;;;;;-148.88;100.00;-17125.47;5035029;28;20109;-73
2023/06/23 10:43:18;;;;;;;19.17;12.60;;;;;;;-148.88;100.00;-17125.47;5034971;28;20025;-72
2023/06/23 10:45:45;;;;;;;18.85;11.73;;;;;;;-148.88;100.00;-17125.47;5017435;28;20017;-72
2023/06/23 10:48:11;;;;;;;16.20;11.40;;;;;;;-148.88;100.00;-17125.47;5035135;28;20406;-73
2023/06/23 10:50:39;;;;;;;17.35;10.27;;;;;;;-148.88;100.00;-17125.47;5034775;28;20029;-72
2023/06/23 10:53:17;;;;;;;15.48;10.60;;;;;;;-148.88;100.00;-17125.47;5034813;28;20105;-72
2023/06/23 10:55:45;;;;;;;14.02;9.35;;;;;;;-148.88;100.00;-17125.47;5034802;28;20033;-72